sensor_id;sensor_type;location;lat;lon;timestamp;P1;durP1;ratioP1;P2;durP2;ratioP2
20995;SDS011;10656;52.200;21.052;2023-06-19T01:14:00;29.70;;;22.80;;
20995;SDS011;10656;52.200;21.052;2023-06-19T01:49:31;27.50;;;21.77;;
20995;SDS011;10656;52.200;21.052;2023-06-19T02:14:44;24.60;;;20.40;;
20995;SDS011;10656;52.200;21.052;2023-06-19T02:34:44;23.20;;;19.63;;
20995;SDS011;10656;52.200;21.052;2023-06-19T02:55:27;21.37;;;18.40;;
20995;SDS011;10656;52.200;21.052;2023-06-19T03:25:51;22.50;;;19.20;;
20995;SDS011;10656;52.200;21.052;2023-06-19T03:51:09;21.57;;;17.90;;
20995;SDS011;10656;52.200;21.052;2023-06-19T04:26:51;18.73;;;16.73;;
20995;SDS011;10656;52.200;21.052;2023-06-19T04:57:04;18.27;;;14.77;;
20995;SDS011;10656;52.200;21.052;2023-06-19T05:22:17;13.60;;;12.20;;
20995;SDS011;10656;52.200;21.052;2023-06-19T05:42:47;12.00;;;10.90;;
20995;SDS011;10656;52.200;21.052;2023-06-19T06:07:46;10.33;;;9.33;;
20995;SDS011;10656;52.200;21.052;2023-06-19T06:43:46;9.32;;;8.43;;
20995;SDS011;10656;52.200;21.052;2023-06-19T07:14:07;8.88;;;8.18;;
20995;SDS011;10656;52.200;21.052;2023-06-19T07:21:10;11.40;;;10.38;;
20995;SDS011;10656;52.200;21.052;2023-06-19T07:34:08;10.48;;;9.45;;
20995;SDS011;10656;52.200;21.052;2023-06-19T08:04:52;10.52;;;9.63;;
20995;SDS011;10656;52.200;21.052;2023-06-19T08:30:07;9.27;;;8.55;;
20995;SDS011;10656;52.200;21.052;2023-06-19T08:50:26;7.93;;;7.30;;
20995;SDS011;10656;52.200;21.052;2023-06-19T09:20:44;8.07;;;7.20;;
20995;SDS011;10656;52.200;21.052;2023-06-19T09:41:04;7.43;;;6.82;;
20995;SDS011;10656;52.200;21.052;2023-06-19T10:11:45;7.97;;;7.30;;
20995;SDS011;10656;52.200;21.052;2023-06-19T11:07:36;7.30;;;6.57;;
20995;SDS011;10656;52.200;21.052;2023-06-19T11:32:54;5.78;;;5.38;;
20995;SDS011;10656;52.200;21.052;2023-06-19T11:58:20;5.72;;;5.22;;
20995;SDS011;10656;52.200;21.052;2023-06-19T12:23:29;6.20;;;5.60;;
20995;SDS011;10656;52.200;21.052;2023-06-19T12:58:55;5.55;;;4.47;;
20995;SDS011;10656;52.200;21.052;2023-06-19T13:24:25;6.65;;;6.15;;
20995;SDS011;10656;52.200;21.052;2023-06-19T14:04:59;7.90;;;5.55;;
20995;SDS011;10656;52.200;21.052;2023-06-19T14:25:21;6.15;;;5.65;;
20995;SDS011;10656;52.200;21.052;2023-06-19T14:50:17;6.25;;;5.65;;
20995;SDS011;10656;52.200;21.052;2023-06-19T15:21:02;5.57;;;5.18;;
20995;SDS011;10656;52.200;21.052;2023-06-19T16:16:21;5.40;;;5.00;;
20995;SDS011;10656;52.200;21.052;2023-06-19T16:37:20;6.00;;;5.18;;
20995;SDS011;10656;52.200;21.052;2023-06-19T17:12:42;6.20;;;5.57;;
20995;SDS011;10656;52.200;21.052;2023-06-19T17:15:32;5.75;;;5.35;;
20995;SDS011;10656;52.200;21.052;2023-06-19T17:38:03;6.10;;;5.50;;
20995;SDS011;10656;52.200;21.052;2023-06-19T17:45:16;6.18;;;5.68;;
20995;SDS011;10656;52.200;21.052;2023-06-19T18:44:04;9.75;;;6.90;;
20995;SDS011;10656;52.200;21.052;2023-06-19T19:09:26;8.60;;;7.22;;
20995;SDS011;10656;52.200;21.052;2023-06-19T19:12:07;8.52;;;7.63;;
20995;SDS011;10656;52.200;21.052;2023-06-19T19:49:54;11.57;;;10.37;;
20995;SDS011;10656;52.200;21.052;2023-06-19T20:15:13;14.23;;;11.20;;
20995;SDS011;10656;52.200;21.052;2023-06-19T21:11:03;16.07;;;13.33;;
20995;SDS011;10656;52.200;21.052;2023-06-19T21:36:22;17.30;;;14.57;;
20995;SDS011;10656;52.200;21.052;2023-06-19T22:06:49;19.30;;;14.10;;
20995;SDS011;10656;52.200;21.052;2023-06-19T22:27:01;17.23;;;15.23;;
20995;SDS011;10656;52.200;21.052;2023-06-19T22:57:43;17.60;;;15.67;;
20995;SDS011;10656;52.200;21.052;2023-06-19T23:17:50;20.47;;;18.10;;
20995;SDS011;10656;52.200;21.052;2023-06-19T23:43:15;20.50;;;18.10;;
